Time;durP1;ratioP1;P1;durP2;ratioP2;P2;SDS_P1;SDS_P2;PMS_P1;PMS_P2;Temp;Humidity;BMP_temperature;BMP_pressure;BME280_temperature;BME280_humidity;BME280_pressure;Samples;Min_cycle;Max_cycle;Signal;HPM_P1;HPM_P2
2022/12/02 00:01:21;;;;;;;80.65;36.88;;;;;;;4.54;97.67;102610.78;4821796;29;20034;-74
2022/12/02 00:03:47;;;;;;;77.53;35.80;;;;;;;4.55;97.69;102602.09;4808290;29;20399;-74
2022/12/02 00:06:18;;;;;;;82.95;37.97;;;;;;;4.54;97.93;102595.06;4824544;29;20119;-74
2022/12/02 00:08:43;;;;;;;97.40;41.00;;;;;;;4.54;97.58;102592.44;4824617;29;20053;-74
2022/12/02 00:11:35;;;;;;;92.65;37.47;;;;;;;4.58;97.67;102598.69;4808334;29;20516;-74
2022/12/02 00:14:13;;;;;;;86.68;39.35;;;;;;;4.56;97.92;102597.75;4805069;29;20081;-75
2022/12/02 00:16:38;;;;;;;87.03;37.20;;;;;;;4.56;98.01;102597.75;4824402;29;20045;-74
2022/12/02 00:19:04;;;;;;;93.90;38.38;;;;;;;4.57;97.80;102596.88;4824498;29;20058;-74
2022/12/02 00:21:29;;;;;;;87.43;38.00;;;;;;;4.53;97.64;102594.16;4824369;29;20053;-74
2022/12/02 00:23:55;;;;;;;92.13;40.88;;;;;;;4.51;97.85;102595.84;4808134;29;20172;-74
2022/12/02 00:26:21;;;;;;;99.45;39.47;;;;;;;4.54;97.79;102592.44;4824399;29;20053;-74
2022/12/02 00:28:46;;;;;;;92.63;38.45;;;;;;;4.53;97.59;102585.41;4824225;29;20109;-74
2022/12/02 00:31:11;;;;;;;95.57;39.20;;;;;;;4.53;97.64;102581.06;4823520;29;20510;-74
2022/12/02 00:33:37;;;;;;;87.47;38.83;;;;;;;4.52;97.38;102578.38;4824066;29;20535;-74
2022/12/02 00:36:03;;;;;;;86.82;36.70;;;;;;;4.52;97.39;102578.38;4824246;29;20043;-74
2022/12/02 00:38:28;;;;;;;82.82;38.03;;;;;;;4.49;96.84;102579.16;4792762;29;20429;-74
2022/12/02 00:40:53;;;;;;;85.97;37.13;;;;;;;4.48;97.08;102571.28;4824138;29;20046;-74
2022/12/02 00:48:48;;;;;;;84.97;38.58;;;;;;;4.42;96.66;102579.81;4807492;29;20034;-74
2022/12/02 00:51:13;;;;;;;87.82;38.47;;;;;;;4.40;96.32;102571.03;4824080;29;20042;-74
2022/12/02 00:53:39;;;;;;;83.68;38.92;;;;;;;4.37;96.01;102568.28;4823956;29;20030;-74
2022/12/02 00:56:04;;;;;;;84.00;37.63;;;;;;;4.34;96.29;102572.56;4823717;29;20042;-74
2022/12/02 00:58:30;;;;;;;89.85;39.60;;;;;;;4.32;96.23;102568.13;4786994;29;20396;-74
2022/12/02 01:00:56;;;;;;;91.63;36.40;;;;;;;4.31;96.08;102570.75;4801408;29;20081;-74
2022/12/02 01:03:21;;;;;;;83.00;37.08;;;;;;;4.26;96.29;102567.97;4807266;29;20436;-74
2022/12/02 01:05:47;;;;;;;92.60;37.85;;;;;;;4.24;96.26;102574.88;4807182;29;20054;-74
2022/12/02 01:08:12;;;;;;;86.93;38.65;;;;;;;4.22;96.03;102570.44;4807204;29;20408;-74
2022/12/02 01:10:38;;;;;;;78.93;36.35;;;;;;;4.19;96.41;102568.59;4807325;29;20731;-74
2022/12/02 01:13:03;;;;;;;85.50;37.70;;;;;;;4.19;96.76;102559.84;4792312;29;20034;-74
2022/12/02 01:15:29;;;;;;;90.95;37.72;;;;;;;4.19;96.68;102562.47;4807145;29;20050;-74
2022/12/02 01:17:54;;;;;;;85.10;38.50;;;;;;;4.18;96.71;102563.31;4807235;29;20048;-74
2022/12/02 01:20:20;;;;;;;90.57;38.47;;;;;;;4.18;96.57;102560.69;4806974;29;20045;-74
2022/12/02 01:22:45;;;;;;;103.20;40.08;;;;;;;4.18;96.35;102565.94;4823636;29;20065;-74
2022/12/02 01:25:11;;;;;;;91.40;38.03;;;;;;;4.15;96.14;102569.34;4823241;29;20088;-74
2022/12/02 01:27:37;;;;;;;82.75;36.92;;;;;;;4.13;95.88;102568.44;4792262;29;20034;-74
2022/12/02 01:30:04;;;;;;;78.32;36.47;;;;;;;4.10;96.00;102560.44;4790898;29;20043;-74
2022/12/02 01:32:30;;;;;;;78.38;33.03;;;;;;;4.07;96.26;102568.22;4806919;29;20046;-74
2022/12/02 01:34:57;;;;;;;87.35;35.13;;;;;;;4.04;95.56;102569.00;4807007;29;20046;-74
2022/12/02 01:37:22;;;;;;;78.35;35.42;;;;;;;3.99;95.78;102567.09;4791604;29;20040;-74
2022/12/02 01:39:47;;;;;;;85.18;34.88;;;;;;;3.99;95.58;102567.09;4806912;29;20054;-74
2022/12/02 01:42:13;;;;;;;78.90;36.25;;;;;;;3.94;95.30;102572.16;4823325;29;20054;-74
2022/12/02 01:44:38;;;;;;;78.57;36.47;;;;;;;3.90;95.53;102577.25;4791744;29;20145;-74
2022/12/02 01:47:05;;;;;;;81.45;34.88;;;;;;;3.89;95.89;102579.00;4806578;29;20058;-74
2022/12/02 01:49:30;;;;;;;79.90;31.67;;;;;;;3.91;95.49;102579.03;4806597;29;20026;-74
2022/12/02 01:51:56;;;;;;;84.80;35.42;;;;;;;3.83;95.83;102569.19;4823144;29;20510;-74
2022/12/02 01:54:21;;;;;;;83.82;36.65;;;;;;;3.82;95.73;102571.75;4823047;29;20062;-74
2022/12/02 01:56:47;;;;;;;90.35;35.88;;;;;;;3.81;95.98;102573.50;4823270;29;20125;-74
2022/12/02 01:59:14;;;;;;;89.82;36.53;;;;;;;3.79;95.80;102562.06;4806543;29;20453;-74
2022/12/02 02:01:40;;;;;;;82.72;34.45;;;;;;;3.78;95.99;102568.13;4806524;29;20030;-74
2022/12/02 02:04:07;;;;;;;80.63;35.10;;;;;;;3.76;95.68;102572.44;4823092;29;20441;-74
2022/12/02 02:06:36;;;;;;;83.65;35.75;;;;;;;3.73;95.05;102569.69;4822687;29;20050;-74
2022/12/02 02:09:02;;;;;;;79.47;33.83;;;;;;;3.72;95.24;102564.44;4791421;29;20102;-74
2022/12/02 02:11:28;;;;;;;74.07;34.13;;;;;;;3.71;95.75;102573.09;4822981;29;20042;-74
2022/12/02 02:13:59;;;;;;;80.82;35.08;;;;;;;3.70;95.16;102566.09;4823035;29;20034;-74
2022/12/02 02:16:24;;;;;;;78.70;35.83;;;;;;;3.68;94.96;102560.78;4822872;29;20045;-74
2022/12/02 02:18:50;;;;;;;74.05;33.75;;;;;;;3.67;94.86;102567.78;4791494;29;20034;-74
2022/12/02 02:21:24;;;;;;;75.65;34.60;;;;;;;3.67;94.93;102565.16;4791318;29;20034;-74
2022/12/02 02:23:50;;;;;;;71.53;34.08;;;;;;;3.68;94.77;102568.66;4806185;29;20030;-74
2022/12/02 02:26:15;;;;;;;75.22;34.42;;;;;;;3.62;94.77;102565.84;4806275;29;20158;-74
2022/12/02 02:28:41;;;;;;;72.95;34.42;;;;;;;3.62;94.72;102557.97;4791210;29;20030;-74
2022/12/02 02:31:07;;;;;;;77.00;35.25;;;;;;;3.64;94.66;102567.66;4790214;29;20510;-74
2022/12/02 02:33:39;;;;;;;64.90;33.13;;;;;;;3.63;94.94;102560.63;4805991;29;20423;-74
2022/12/02 02:36:05;;;;;;;66.97;32.08;;;;;;;3.62;94.35;102557.97;4808243;29;20069;-74
2022/12/02 02:38:31;;;;;;;61.20;31.17;;;;;;;3.57;93.26;102555.19;4809742;29;20038;-74
2022/12/02 02:40:58;;;;;;;65.70;31.25;;;;;;;3.54;92.86;102546.34;4809709;29;20042;-74
2022/12/02 02:43:26;;;;;;;66.32;30.88;;;;;;;3.51;92.54;102546.22;4809884;29;20038;-74
2022/12/02 02:45:53;;;;;;;62.85;29.58;;;;;;;3.48;91.88;102552.25;4809393;29;20038;-74
2022/12/02 02:48:22;;;;;;;58.75;29.83;;;;;;;3.44;91.56;102553.00;4794674;29;20398;-74
2022/12/02 02:50:49;;;;;;;64.97;29.48;;;;;;;3.39;92.04;102551.97;4809446;29;20372;-74
2022/12/02 02:53:21;;;;;;;60.83;30.10;;;;;;;3.38;91.96;102552.78;4809498;29;20420;-74
2022/12/02 02:55:47;;;;;;;68.47;29.17;;;;;;;3.34;91.02;102553.50;4794429;29;20069;-74
2022/12/02 02:58:12;;;;;;;56.58;29.73;;;;;;;3.32;90.94;102555.19;4805840;29;20381;-74
2022/12/02 03:00:42;;;;;;;59.78;28.55;;;;;;;3.28;91.24;102541.09;4801119;29;20045;-74
2022/12/02 03:03:10;;;;;;;68.30;31.15;;;;;;;3.22;90.62;102533.03;4809582;29;20026;-74
2022/12/02 03:05:36;;;;;;;58.40;27.67;;;;;;;3.22;90.67;102533.91;4808840;29;20050;-74
2022/12/02 03:08:03;;;;;;;62.72;30.60;;;;;;;3.20;90.89;102524.22;4794279;29;20509;-74
2022/12/02 03:10:28;;;;;;;60.92;30.98;;;;;;;3.16;90.86;102522.31;4825649;29;20041;-74
2022/12/02 03:12:54;;;;;;;55.67;27.73;;;;;;;3.16;91.68;102520.59;4809486;29;20100;-74
2022/12/02 03:15:23;;;;;;;63.40;28.15;;;;;;;3.18;91.78;102524.16;4808906;29;20546;-74
2022/12/02 03:17:49;;;;;;;61.13;28.73;;;;;;;3.17;91.55;102525.00;4824738;29;20050;-74
2022/12/02 03:20:15;;;;;;;63.70;30.95;;;;;;;3.15;91.63;102526.66;4825298;29;20034;-74
2022/12/02 03:22:41;;;;;;;56.53;29.30;;;;;;;3.15;92.02;102529.28;4825768;29;20046;-74
2022/12/02 03:25:07;;;;;;;56.50;28.77;;;;;;;3.17;92.50;102530.25;4825444;29;20389;-74
2022/12/02 03:27:33;;;;;;;60.33;29.52;;;;;;;3.18;91.89;102531.13;4829927;29;20038;-74
2022/12/02 03:29:59;;;;;;;59.92;30.25;;;;;;;3.18;92.23;102529.41;4816480;29;20099;-74
2022/12/02 03:32:25;;;;;;;61.85;30.33;;;;;;;3.16;92.40;102524.94;4838076;29;20033;-74
2022/12/02 03:34:51;;;;;;;67.95;32.72;;;;;;;3.14;91.96;102516.13;4819213;29;20069;-74
2022/12/02 03:37:17;;;;;;;59.85;28.00;;;;;;;3.15;91.70;102517.94;4820092;29;20073;-74
2022/12/02 03:39:43;;;;;;;61.08;31.27;;;;;;;3.12;91.61;102509.97;4838094;29;20050;-74
2022/12/02 03:42:08;;;;;;;57.95;28.00;;;;;;;3.14;91.75;102508.28;4842521;29;20025;-74
2022/12/02 03:44:35;;;;;;;66.88;30.58;;;;;;;3.13;91.80;102507.41;4825890;29;20053;-74
2022/12/02 03:47:01;;;;;;;60.50;28.35;;;;;;;3.13;91.45;102504.78;4823071;29;20049;-74
2022/12/02 03:49:27;;;;;;;60.40;29.35;;;;;;;3.12;91.83;102510.88;4838330;29;20048;-74
2022/12/02 03:51:53;;;;;;;62.00;28.33;;;;;;;3.10;92.01;102511.66;4839030;29;20050;-74
2022/12/02 03:54:19;;;;;;;66.30;29.58;;;;;;;3.08;91.87;102503.72;4839381;29;20501;-74
2022/12/02 03:56:44;;;;;;;60.75;27.73;;;;;;;3.08;92.47;102500.22;4835598;29;20486;-74
2022/12/02 03:59:16;;;;;;;66.75;29.25;;;;;;;3.07;91.71;102506.31;4839162;29;20038;-74
2022/12/02 04:01:42;;;;;;;55.72;26.98;;;;;;;3.03;92.21;102513.16;4821376;29;20029;-74
2022/12/02 04:04:07;;;;;;;58.15;26.10;;;;;;;3.00;92.45;102511.31;4840504;29;20033;-74
2022/12/02 04:06:32;;;;;;;56.25;25.55;;;;;;;2.97;92.21;102503.34;4840236;29;20471;-74
2022/12/02 04:08:58;;;;;;;56.85;24.38;;;;;;;2.95;91.90;102504.13;4809233;29;20129;-74
2022/12/02 04:11:23;;;;;;;53.35;24.13;;;;;;;2.92;91.79;102496.19;4841556;29;20042;-74
2022/12/02 04:13:49;;;;;;;52.90;25.20;;;;;;;2.93;92.18;102500.56;4841372;29;20060;-74
2022/12/02 04:16:14;;;;;;;51.20;23.67;;;;;;;2.92;91.98;102494.44;4825833;29;20046;-74
2022/12/02 04:18:40;;;;;;;55.75;24.75;;;;;;;2.94;91.73;102486.63;4837567;29;20034;-74
2022/12/02 04:21:05;;;;;;;51.65;23.55;;;;;;;2.94;92.29;102478.78;4840520;29;20048;-74
2022/12/02 04:23:31;;;;;;;54.20;24.13;;;;;;;2.93;92.08;102485.75;4840318;29;20047;-74
2022/12/02 04:25:56;;;;;;;53.05;25.02;;;;;;;2.94;92.25;102491.88;4840993;29;20052;-74
2022/12/02 04:28:21;;;;;;;62.05;26.00;;;;;;;2.94;91.91;102491.88;4822998;29;20029;-74
2022/12/02 04:30:47;;;;;;;54.20;23.73;;;;;;;2.91;92.24;102492.66;4834130;29;20448;-74
2022/12/02 04:33:12;;;;;;;53.00;25.60;;;;;;;2.90;92.63;102497.84;4822428;29;20049;-74
2022/12/02 04:35:38;;;;;;;50.58;24.27;;;;;;;2.87;92.39;102498.63;4838452;29;20133;-74
2022/12/02 04:38:03;;;;;;;58.53;25.35;;;;;;;2.85;92.61;102492.44;4824571;29;20049;-74
2022/12/02 04:40:29;;;;;;;53.00;23.23;;;;;;;2.82;91.86;102492.34;4841129;29;20038;-74
2022/12/02 04:42:55;;;;;;;51.00;22.80;;;;;;;2.84;91.93;102490.66;4824929;29;20117;-74
2022/12/02 04:45:20;;;;;;;47.75;21.80;;;;;;;2.82;91.41;102483.56;4839245;29;20045;-74
2022/12/02 04:47:46;;;;;;;49.78;23.83;;;;;;;2.82;91.97;102480.97;4818884;29;20126;-74
2022/12/02 04:50:11;;;;;;;48.25;22.50;;;;;;;2.79;91.36;102480.03;4840144;29;20399;-74
2022/12/02 04:52:37;;;;;;;44.67;20.67;;;;;;;2.82;91.08;102475.72;4839393;29;20467;-74
2022/12/02 04:55:02;;;;;;;45.10;20.73;;;;;;;2.78;90.15;102478.25;4824025;29;20038;-74
2022/12/02 04:57:28;;;;;;;44.85;21.20;;;;;;;2.77;90.09;102467.75;4840917;29;20052;-74
2022/12/02 04:59:53;;;;;;;46.17;19.60;;;;;;;2.78;90.43;102469.50;4820891;29;20056;-75
2022/12/02 05:02:19;;;;;;;40.15;19.50;;;;;;;2.77;90.18;102458.16;4839271;29;20098;-74
2022/12/02 05:04:44;;;;;;;38.05;19.80;;;;;;;2.78;89.83;102466.91;4837147;29;20428;-74
2022/12/02 05:07:10;;;;;;;44.40;20.63;;;;;;;2.77;90.12;102462.50;4839964;29;20434;-74
2022/12/02 05:09:35;;;;;;;41.53;19.75;;;;;;;2.77;89.68;102455.53;4839301;29;20034;-74
2022/12/02 05:12:01;;;;;;;38.83;19.23;;;;;;;2.75;88.92;102451.97;4839989;29;20492;-74
2022/12/02 05:14:26;;;;;;;40.28;19.23;;;;;;;2.75;89.35;102451.09;4840822;29;20042;-74
2022/12/02 05:16:52;;;;;;;40.70;20.58;;;;;;;2.77;90.18;102459.91;4840909;29;20095;-74
2022/12/02 05:19:17;;;;;;;39.65;19.58;;;;;;;2.74;89.29;102449.28;4822665;29;20030;-75
2022/12/02 05:21:43;;;;;;;37.70;19.55;;;;;;;2.74;89.22;102441.44;4837237;29;20510;-74
2022/12/02 05:24:08;;;;;;;39.22;18.67;;;;;;;2.76;89.77;102458.97;4822844;29;20030;-74
2022/12/02 05:26:33;;;;;;;39.45;19.63;;;;;;;2.74;89.26;102458.03;4840962;29;20422;-74
2022/12/02 05:28:59;;;;;;;37.97;19.13;;;;;;;2.75;89.15;102469.41;4818352;29;20105;-74
2022/12/02 05:31:24;;;;;;;40.03;18.30;;;;;;;2.76;89.59;102456.34;4788750;29;20491;-74
2022/12/02 05:33:50;;;;;;;41.63;18.67;;;;;;;2.74;89.26;102444.94;4839052;29;20471;-74
2022/12/02 05:36:15;;;;;;;34.47;17.40;;;;;;;2.73;89.84;102437.94;4820923;29;20118;-74
2022/12/02 05:38:42;;;;;;;36.20;18.95;;;;;;;2.74;89.02;102444.94;4808526;29;20090;-74
2022/12/02 05:41:07;;;;;;;38.70;19.20;;;;;;;2.75;89.74;102445.88;4808505;29;20063;-74
2022/12/02 05:43:38;;;;;;;38.35;19.90;;;;;;;2.75;90.05;102443.25;4840814;29;20402;-74
2022/12/02 05:46:12;;;;;;;41.25;20.40;;;;;;;2.76;89.61;102445.00;4836454;29;20052;-74
2022/12/02 05:48:38;;;;;;;40.78;20.25;;;;;;;2.74;89.34;102447.56;4838948;29;20185;-74
2022/12/02 05:51:10;;;;;;;40.83;20.23;;;;;;;2.74;89.36;102444.06;4821493;29;20153;-74
2022/12/02 05:53:37;;;;;;;41.92;18.80;;;;;;;2.74;89.30;102447.56;4839610;29;20038;-74
2022/12/02 05:56:09;;;;;;;36.47;18.10;;;;;;;2.74;89.66;102446.69;4807452;29;20030;-74
2022/12/02 05:58:34;;;;;;;36.63;17.73;;;;;;;2.74;89.94;102444.94;4836823;29;20114;-74
2022/12/02 06:00:59;;;;;;;38.97;18.58;;;;;;;2.74;89.48;102447.56;4824313;29;20053;-74
2022/12/02 06:03:25;;;;;;;38.92;18.55;;;;;;;2.75;89.24;102451.09;4836283;29;20061;-74
2022/12/02 06:05:54;;;;;;;36.72;17.83;;;;;;;2.75;89.03;102445.88;4838761;29;20058;-74
2022/12/02 06:08:24;;;;;;;40.78;18.67;;;;;;;2.72;90.08;102438.78;4821063;29;20079;-74
2022/12/02 06:10:56;;;;;;;39.13;18.02;;;;;;;2.72;89.36;102444.03;4838756;29;20486;-74
2022/12/02 06:13:25;;;;;;;39.25;17.90;;;;;;;2.74;90.14;102446.69;4838917;29;20029;-74
2022/12/02 06:15:52;;;;;;;39.15;18.98;;;;;;;2.74;90.16;102447.56;4823836;29;20029;-74
2022/12/02 06:18:26;;;;;;;42.28;18.60;;;;;;;2.73;89.86;102445.78;4821818;29;20479;-74
2022/12/02 06:20:57;;;;;;;39.28;18.67;;;;;;;2.73;89.61;102451.03;4835064;29;20418;-74
2022/12/02 06:23:26;;;;;;;46.72;19.17;;;;;;;2.71;90.48;102443.97;4820695;29;20049;-74
2022/12/02 06:25:53;;;;;;;42.42;19.92;;;;;;;2.71;90.33;102444.84;4839909;29;20033;-74
2022/12/02 06:28:35;;;;;;;35.30;17.23;;;;;;;2.74;90.12;102439.72;4838243;29;20054;-74
2022/12/02 06:31:19;;;;;;;44.33;19.67;;;;;;;2.73;90.07;102444.91;4830234;29;20042;-74
2022/12/02 06:33:49;;;;;;;37.78;17.70;;;;;;;2.68;90.05;102439.50;4838724;29;20050;-74
2022/12/02 06:36:21;;;;;;;43.63;18.60;;;;;;;2.70;89.95;102447.44;4782201;29;20051;-74
2022/12/02 06:38:50;;;;;;;39.72;17.63;;;;;;;2.68;90.48;102436.91;4839623;29;20440;-74
2022/12/02 06:41:20;;;;;;;37.33;18.38;;;;;;;2.70;90.45;102445.69;4839095;29;20071;-74
2022/12/02 06:45:03;;;;;;;47.67;19.25;;;;;;;2.70;90.83;102429.13;4837400;29;20098;-74
2022/12/02 06:46:36;;;;;;;40.03;18.42;;;;;;;2.68;90.77;102439.50;4840254;29;20529;-74
2022/12/02 06:49:21;;;;;;;42.95;17.65;;;;;;;2.71;90.25;102436.13;4837371;29;20125;-74
2022/12/02 06:51:59;;;;;;;38.28;18.95;;;;;;;2.71;90.48;102437.00;4838390;29;20049;-74
2022/12/02 06:54:29;;;;;;;37.92;17.92;;;;;;;2.71;90.23;102439.63;4837292;29;20038;-74
2022/12/02 06:56:57;;;;;;;42.50;18.67;;;;;;;2.70;90.90;102444.81;4836799;29;20046;-74
2022/12/02 06:59:23;;;;;;;41.63;18.60;;;;;;;2.69;90.99;102443.88;4834488;29;20037;-74
2022/12/02 07:01:59;;;;;;;38.28;16.92;;;;;;;2.70;90.92;102440.47;4835154;29;20041;-74
2022/12/02 07:04:39;;;;;;;41.15;18.35;;;;;;;2.69;90.83;102441.28;4821156;29;20117;-74
2022/12/02 07:07:12;;;;;;;43.20;17.42;;;;;;;2.69;91.33;102445.63;4821076;29;20034;-74
2022/12/02 07:09:41;;;;;;;42.83;18.80;;;;;;;2.67;91.20;102449.91;4837654;29;20078;-74
2022/12/02 07:12:22;;;;;;;36.45;17.40;;;;;;;2.67;90.81;102456.06;4838778;29;20038;-74
2022/12/02 07:14:54;;;;;;;40.13;17.83;;;;;;;2.66;91.50;102453.38;4838296;29;20040;-74
2022/12/02 07:17:22;;;;;;;38.15;17.52;;;;;;;2.66;90.97;102454.25;4837410;29;20045;-74
2022/12/02 07:19:59;;;;;;;39.33;17.90;;;;;;;2.68;91.37;102456.94;4804903;29;20034;-74
2022/12/02 07:22:32;;;;;;;38.55;17.30;;;;;;;2.66;92.01;102458.59;4839044;29;20038;-75
2022/12/02 07:25:06;;;;;;;38.80;17.50;;;;;;;2.68;91.81;102462.16;4824193;29;20454;-74
2022/12/02 07:27:34;;;;;;;35.78;15.93;;;;;;;2.68;91.39;102454.31;4842232;29;20057;-74
2022/12/02 07:30:01;;;;;;;35.78;16.48;;;;;;;2.68;91.61;102457.81;4822666;29;20025;-74
2022/12/02 07:32:27;;;;;;;35.13;16.95;;;;;;;2.68;91.24;102447.34;4820856;29;20062;-74
2022/12/02 07:34:52;;;;;;;41.55;17.30;;;;;;;2.68;91.47;102455.19;4841800;29;20041;-74
2022/12/02 07:37:18;;;;;;;34.92;15.93;;;;;;;2.68;91.46;102452.59;4837554;29;20106;-74
2022/12/02 07:39:44;;;;;;;40.80;16.90;;;;;;;2.68;91.61;102447.34;4839772;29;20046;-74
2022/12/02 07:42:13;;;;;;;38.17;17.58;;;;;;;2.67;91.41;102445.59;4841229;29;20049;-74
2022/12/02 07:44:39;;;;;;;35.88;17.02;;;;;;;2.64;91.98;102450.69;4840468;29;20041;-74
2022/12/02 07:47:08;;;;;;;35.05;17.73;;;;;;;2.65;91.63;102449.00;4840533;29;20042;-74
2022/12/02 07:49:34;;;;;;;33.58;17.13;;;;;;;2.65;92.13;102455.09;4807634;29;20057;-74
2022/12/02 07:51:59;;;;;;;36.45;16.98;;;;;;;2.63;92.27;102458.50;4826151;29;20506;-74
2022/12/02 07:54:24;;;;;;;35.65;16.83;;;;;;;2.60;92.84;102448.81;4838802;29;20038;-74
2022/12/02 07:56:50;;;;;;;32.85;17.13;;;;;;;2.61;92.11;102462.78;4837708;29;20124;-74
2022/12/02 07:59:15;;;;;;;34.90;17.67;;;;;;;2.60;92.35;102461.88;4840864;29;20432;-74
2022/12/02 08:01:41;;;;;;;42.95;18.05;;;;;;;2.59;93.11;102457.47;4840212;29;20437;-74
2022/12/02 08:04:06;;;;;;;34.08;17.00;;;;;;;2.57;92.31;102462.66;4825274;29;20439;-74
2022/12/02 08:06:32;;;;;;;33.35;16.58;;;;;;;2.56;92.42;102468.72;4821770;29;20054;-74
2022/12/02 08:08:57;;;;;;;39.53;18.27;;;;;;;2.55;92.57;102464.34;4824321;29;20125;-74
2022/12/02 08:11:23;;;;;;;36.65;18.75;;;;;;;2.55;93.10;102469.56;4820285;29;20145;-74
2022/12/02 08:13:48;;;;;;;38.95;19.90;;;;;;;2.54;92.99;102470.38;4821528;29;20129;-74
2022/12/02 08:16:14;;;;;;;43.13;19.38;;;;;;;2.54;92.61;102470.38;4822448;29;20030;-74
2022/12/02 08:18:39;;;;;;;41.58;18.55;;;;;;;2.54;92.29;102464.25;4821648;29;20034;-74
2022/12/02 08:21:05;;;;;;;39.45;19.90;;;;;;;2.53;93.16;102465.09;4823145;29;20073;-74
2022/12/02 08:23:30;;;;;;;42.85;19.63;;;;;;;2.52;93.40;102456.38;4820349;29;20038;-74
2022/12/02 08:25:56;;;;;;;39.30;17.92;;;;;;;2.54;93.58;102454.69;4819267;29;20026;-75
2022/12/02 08:28:21;;;;;;;41.33;18.80;;;;;;;2.54;93.49;102454.69;4819015;29;20050;-74
2022/12/02 08:30:47;;;;;;;37.63;18.20;;;;;;;2.55;93.22;102453.88;4811635;29;20118;-75
2022/12/02 08:33:12;;;;;;;40.75;19.30;;;;;;;2.56;93.51;102454.75;4809825;29;20043;-75
2022/12/02 08:35:38;;;;;;;41.67;19.15;;;;;;;2.57;94.16;102453.91;4811572;29;20050;-75
2022/12/02 08:38:07;;;;;;;37.90;18.17;;;;;;;2.56;93.35;102450.41;4806226;29;20045;-75
2022/12/02 08:40:34;;;;;;;41.97;18.98;;;;;;;2.54;93.86;102451.19;4804704;29;20046;-75
2022/12/02 08:43:01;;;;;;;37.45;19.33;;;;;;;2.58;94.31;102455.72;4814022;29;20023;-74
2022/12/02 08:45:28;;;;;;;39.97;19.88;;;;;;;2.58;93.70;102451.38;4820666;29;20050;-75
2022/12/02 08:47:53;;;;;;;40.20;20.02;;;;;;;2.57;93.79;102449.59;4814400;29;20424;-75
2022/12/02 08:50:19;;;;;;;39.15;18.98;;;;;;;2.60;93.33;102459.28;4818816;29;20042;-75
2022/12/02 08:52:44;;;;;;;38.85;19.70;;;;;;;2.61;94.06;102452.31;4817410;29;20488;-75
2022/12/02 08:55:10;;;;;;;29.10;15.38;;;;;;;2.61;93.47;102452.31;4816908;29;20559;-76
2022/12/02 08:57:35;;;;;;;28.83;16.23;;;;;;;2.59;93.59;102453.13;4820028;29;20479;-75
2022/12/02 09:00:05;;;;;;;36.63;17.00;;;;;;;2.59;93.93;102455.75;4820824;29;20049;-75
2022/12/02 09:02:30;;;;;;;35.85;17.55;;;;;;;2.62;94.09;102451.47;4806936;29;20055;-75
2022/12/02 09:04:56;;;;;;;38.15;18.58;;;;;;;2.62;94.68;102452.38;4815794;29;20479;-75
2022/12/02 09:07:21;;;;;;;49.50;18.75;;;;;;;2.64;94.42;102458.53;4820566;29;20570;-75
2022/12/02 09:09:47;;;;;;;42.97;18.73;;;;;;;2.67;95.49;102457.75;4834729;29;20098;-75
2022/12/02 09:12:12;;;;;;;33.40;16.23;;;;;;;2.64;94.69;102458.53;4808020;29;20069;-75
2022/12/02 09:14:38;;;;;;;33.97;17.25;;;;;;;2.63;95.32;102467.22;4829001;29;20058;-75
2022/12/02 09:17:03;;;;;;;37.17;15.80;;;;;;;2.58;95.31;102458.31;4807145;29;20524;-75
2022/12/02 09:19:29;;;;;;;32.88;14.98;;;;;;;2.55;95.49;102461.72;4807141;29;20042;-75
2022/12/02 09:21:54;;;;;;;35.72;16.13;;;;;;;2.56;96.41;102457.38;4823579;29;20095;-75
2022/12/02 09:24:20;;;;;;;32.08;16.30;;;;;;;2.55;96.10;102455.59;4824246;29;20047;-75
2022/12/02 09:26:45;;;;;;;34.75;15.98;;;;;;;2.57;96.64;102460.06;4829692;29;20073;-75
2022/12/02 09:29:11;;;;;;;34.17;15.23;;;;;;;2.57;97.13;102456.53;4806053;29;20031;-75
2022/12/02 09:31:36;;;;;;;28.55;14.68;;;;;;;2.57;96.48;102444.38;4827698;29;20042;-75
2022/12/02 09:34:01;;;;;;;30.75;14.57;;;;;;;2.54;96.34;102457.31;4823164;29;20070;-75
2022/12/02 09:36:27;;;;;;;32.50;15.10;;;;;;;2.51;96.65;102446.72;4823254;29;20057;-75
2022/12/02 09:38:52;;;;;;;30.67;15.93;;;;;;;2.50;97.47;102439.75;4822929;29;20117;-75
2022/12/02 09:41:18;;;;;;;31.00;15.00;;;;;;;2.49;97.36;102439.66;4788857;29;20078;-75
2022/12/02 09:43:43;;;;;;;32.58;14.38;;;;;;;2.49;97.44;102439.66;4816329;29;20038;-75
2022/12/02 09:46:09;;;;;;;33.50;15.32;;;;;;;2.49;97.87;102432.72;4822181;29;20446;-75
2022/12/02 09:48:36;;;;;;;35.35;16.40;;;;;;;2.49;98.24;102437.94;4822983;29;20050;-75
2022/12/02 09:51:01;;;;;;;32.03;15.05;;;;;;;2.50;98.07;102447.59;4823048;29;20085;-75
2022/12/02 09:53:32;;;;;;;32.83;15.35;;;;;;;2.52;98.28;102445.00;4823034;29;20066;-75
2022/12/02 09:55:58;;;;;;;34.97;15.20;;;;;;;2.51;98.62;102443.25;4823018;29;20046;-75
2022/12/02 09:58:25;;;;;;;35.53;15.98;;;;;;;2.52;98.58;102443.31;4803255;29;20115;-75
2022/12/02 10:00:51;;;;;;;36.17;16.90;;;;;;;2.49;98.07;102442.28;4806244;29;20103;-75
2022/12/02 10:03:22;;;;;;;33.60;16.17;;;;;;;2.47;98.34;102443.94;4822961;29;20106;-75
2022/12/02 10:05:48;;;;;;;36.78;16.48;;;;;;;2.47;98.66;102442.22;4790892;29;20054;-75
2022/12/02 10:08:20;;;;;;;40.53;15.38;;;;;;;2.47;98.82;102436.09;4822796;29;20039;-75
2022/12/02 10:10:47;;;;;;;41.83;16.70;;;;;;;2.48;98.23;102436.16;4822910;29;20072;-74
2022/12/02 10:13:15;;;;;;;36.75;16.40;;;;;;;2.49;98.19;102437.94;4823053;29;20030;-75
2022/12/02 10:15:40;;;;;;;41.75;18.65;;;;;;;2.48;98.95;102436.16;4791377;29;20046;-74
2022/12/02 10:18:15;;;;;;;50.85;17.80;;;;;;;2.49;98.81;102430.09;4806303;29;20053;-75
2022/12/02 10:20:41;;;;;;;48.97;19.67;;;;;;;2.48;98.69;102435.28;4822544;29;20045;-74
2022/12/02 10:23:09;;;;;;;44.17;18.65;;;;;;;2.48;98.51;102430.06;4806339;29;20031;-74
2022/12/02 10:25:37;;;;;;;53.80;21.00;;;;;;;2.48;99.25;102427.44;4822678;29;20030;-74
2022/12/02 10:28:03;;;;;;;46.17;18.75;;;;;;;2.49;98.53;102429.22;4822966;29;20027;-74
2022/12/02 10:30:29;;;;;;;56.83;20.15;;;;;;;2.51;99.28;102423.19;4821486;29;20038;-74
2022/12/02 10:32:59;;;;;;;47.30;19.70;;;;;;;2.54;99.15;102423.31;4791249;29;20074;-74
2022/12/02 10:35:25;;;;;;;51.88;20.13;;;;;;;2.56;99.30;102421.63;4822443;29;20133;-74
2022/12/02 10:37:52;;;;;;;45.88;20.20;;;;;;;2.58;99.20;102412.13;4822003;29;20022;-75
2022/12/02 10:40:24;;;;;;;47.50;20.77;;;;;;;2.59;98.94;102407.78;4790952;29;20042;-74
2022/12/02 10:43:09;;;;;;;53.15;20.90;;;;;;;2.61;99.08;102411.34;4822201;29;20439;-74
2022/12/02 10:45:34;;;;;;;41.78;19.15;;;;;;;2.65;98.86;102414.97;4821756;29;20050;-74
2022/12/02 10:48:21;;;;;;;58.40;19.63;;;;;;;2.66;98.43;102404.56;4805335;29;20117;-74
2022/12/02 10:50:47;;;;;;;53.85;20.83;;;;;;;2.69;98.35;102409.00;4821874;29;20042;-74
2022/12/02 10:53:15;;;;;;;59.22;21.63;;;;;;;2.70;99.14;102401.22;4821878;29;20053;-74
2022/12/02 10:55:41;;;;;;;50.55;19.52;;;;;;;2.72;98.41;102399.56;4821862;29;20122;-74
2022/12/02 10:58:12;;;;;;;49.20;20.05;;;;;;;2.72;98.17;102394.31;4808648;29;20121;-74
2022/12/02 11:00:37;;;;;;;51.60;23.20;;;;;;;2.73;98.18;102398.72;4833245;29;20076;-75
2022/12/02 11:03:04;;;;;;;54.33;20.90;;;;;;;2.75;98.10;102398.78;4809306;29;20062;-75
2022/12/02 11:05:32;;;;;;;51.30;19.77;;;;;;;2.73;98.14;102397.81;4825080;29;20050;-75
2022/12/02 11:08:01;;;;;;;51.72;21.52;;;;;;;2.73;97.79;102401.31;4827670;29;20478;-75
2022/12/02 11:10:35;;;;;;;48.15;19.95;;;;;;;2.74;98.01;102395.25;4825100;29;20043;-75
2022/12/02 11:13:03;;;;;;;52.53;21.20;;;;;;;2.77;97.35;102399.72;4809319;29;20421;-75
2022/12/02 11:15:42;;;;;;;48.60;19.88;;;;;;;2.79;97.56;102391.09;4817952;29;20335;-75
2022/12/02 11:18:11;;;;;;;46.42;19.55;;;;;;;2.79;96.82;102390.19;4826911;29;20038;-75
2022/12/02 11:20:44;;;;;;;53.22;20.77;;;;;;;2.79;96.95;102380.63;4808797;29;20054;-75
2022/12/02 11:23:25;;;;;;;45.80;18.60;;;;;;;2.82;96.61;102390.31;4825389;29;20038;-75